sensor_id;sensor_type;location;lat;lon;timestamp;P1;durP1;ratioP1;P2;durP2;ratioP2
49366;SDS011;35245;52.026;8.540;2023-01-19T00:00:44;14.57;;;7.88;;
49366;SDS011;35245;52.026;8.540;2023-01-19T00:03:11;14.15;;;7.75;;
49366;SDS011;35245;52.026;8.540;2023-01-19T00:05:40;13.13;;;7.45;;
49366;SDS011;35245;52.026;8.540;2023-01-19T00:08:08;16.90;;;8.07;;
49366;SDS011;35245;52.026;8.540;2023-01-19T00:10:39;14.38;;;8.30;;
49366;SDS011;35245;52.026;8.540;2023-01-19T00:13:09;13.73;;;7.57;;
49366;SDS011;35245;52.026;8.540;2023-01-19T00:15:39;13.38;;;7.82;;
49366;SDS011;35245;52.026;8.540;2023-01-19T00:18:06;15.68;;;8.18;;
49366;SDS011;35245;52.026;8.540;2023-01-19T00:20:33;11.68;;;7.70;;
49366;SDS011;35245;52.026;8.540;2023-01-19T00:23:00;14.05;;;8.35;;
49366;SDS011;35245;52.026;8.540;2023-01-19T00:25:29;14.02;;;8.65;;
49366;SDS011;35245;52.026;8.540;2023-01-19T00:27:56;16.02;;;9.05;;
49366;SDS011;35245;52.026;8.540;2023-01-19T00:30:25;17.98;;;9.02;;
49366;SDS011;35245;52.026;8.540;2023-01-19T00:32:52;22.63;;;9.32;;
49366;SDS011;35245;52.026;8.540;2023-01-19T00:35:19;15.73;;;9.00;;
49366;SDS011;35245;52.026;8.540;2023-01-19T00:37:46;13.68;;;8.68;;
49366;SDS011;35245;52.026;8.540;2023-01-19T00:40:13;17.75;;;8.85;;
49366;SDS011;35245;52.026;8.540;2023-01-19T00:42:41;17.38;;;9.55;;
49366;SDS011;35245;52.026;8.540;2023-01-19T00:45:09;17.98;;;9.88;;
49366;SDS011;35245;52.026;8.540;2023-01-19T00:47:40;14.77;;;8.82;;
49366;SDS011;35245;52.026;8.540;2023-01-19T00:50:08;16.45;;;9.45;;
49366;SDS011;35245;52.026;8.540;2023-01-19T00:52:38;18.67;;;9.27;;
49366;SDS011;35245;52.026;8.540;2023-01-19T00:55:06;21.02;;;10.32;;
49366;SDS011;35245;52.026;8.540;2023-01-19T00:57:35;14.65;;;8.80;;
49366;SDS011;35245;52.026;8.540;2023-01-19T01:00:02;14.25;;;9.13;;
49366;SDS011;35245;52.026;8.540;2023-01-19T01:02:31;15.45;;;8.77;;
49366;SDS011;35245;52.026;8.540;2023-01-19T01:05:00;17.48;;;9.90;;
49366;SDS011;35245;52.026;8.540;2023-01-19T01:07:28;17.13;;;9.73;;
49366;SDS011;35245;52.026;8.540;2023-01-19T01:09:59;18.83;;;9.45;;
49366;SDS011;35245;52.026;8.540;2023-01-19T01:12:26;16.85;;;9.95;;
49366;SDS011;35245;52.026;8.540;2023-01-19T01:14:53;16.30;;;10.00;;
49366;SDS011;35245;52.026;8.540;2023-01-19T01:17:20;15.75;;;10.45;;
49366;SDS011;35245;52.026;8.540;2023-01-19T01:19:49;17.45;;;10.10;;
49366;SDS011;35245;52.026;8.540;2023-01-19T01:22:18;21.58;;;10.25;;
49366;SDS011;35245;52.026;8.540;2023-01-19T01:24:45;15.85;;;10.32;;
49366;SDS011;35245;52.026;8.540;2023-01-19T01:27:12;16.05;;;10.13;;
49366;SDS011;35245;52.026;8.540;2023-01-19T01:29:39;16.02;;;10.07;;
49366;SDS011;35245;52.026;8.540;2023-01-19T01:32:10;16.27;;;10.35;;
49366;SDS011;35245;52.026;8.540;2023-01-19T01:34:38;20.50;;;10.45;;
49366;SDS011;35245;52.026;8.540;2023-01-19T01:37:05;18.48;;;9.27;;
49366;SDS011;35245;52.026;8.540;2023-01-19T01:39:34;17.17;;;9.90;;
49366;SDS011;35245;52.026;8.540;2023-01-19T01:42:01;21.75;;;10.50;;
49366;SDS011;35245;52.026;8.540;2023-01-19T01:44:43;16.98;;;10.23;;
49366;SDS011;35245;52.026;8.540;2023-01-19T01:47:18;16.98;;;10.02;;
49366;SDS011;35245;52.026;8.540;2023-01-19T01:49:57;16.52;;;9.60;;
49366;SDS011;35245;52.026;8.540;2023-01-19T01:52:36;16.23;;;9.43;;
49366;SDS011;35245;52.026;8.540;2023-01-19T01:55:10;15.90;;;10.75;;
49366;SDS011;35245;52.026;8.540;2023-01-19T01:57:40;15.68;;;9.90;;
49366;SDS011;35245;52.026;8.540;2023-01-19T02:00:14;17.05;;;10.02;;
49366;SDS011;35245;52.026;8.540;2023-01-19T02:02:42;17.27;;;10.05;;
49366;SDS011;35245;52.026;8.540;2023-01-19T02:05:16;18.25;;;10.15;;
49366;SDS011;35245;52.026;8.540;2023-01-19T02:07:49;17.33;;;10.00;;
49366;SDS011;35245;52.026;8.540;2023-01-19T02:10:42;17.40;;;10.38;;
49366;SDS011;35245;52.026;8.540;2023-01-19T02:13:28;16.40;;;10.35;;
49366;SDS011;35245;52.026;8.540;2023-01-19T02:15:58;17.38;;;10.57;;
49366;SDS011;35245;52.026;8.540;2023-01-19T02:18:28;18.23;;;11.13;;
49366;SDS011;35245;52.026;8.540;2023-01-19T02:20:58;15.82;;;10.10;;
49366;SDS011;35245;52.026;8.540;2023-01-19T02:23:38;16.13;;;10.50;;
49366;SDS011;35245;52.026;8.540;2023-01-19T02:26:09;17.83;;;10.75;;
49366;SDS011;35245;52.026;8.540;2023-01-19T02:28:40;16.83;;;11.00;;
49366;SDS011;35245;52.026;8.540;2023-01-19T02:31:12;17.75;;;11.40;;
49366;SDS011;35245;52.026;8.540;2023-01-19T02:33:40;16.67;;;10.48;;
49366;SDS011;35245;52.026;8.540;2023-01-19T02:36:07;18.85;;;10.43;;
49366;SDS011;35245;52.026;8.540;2023-01-19T02:38:39;18.07;;;11.03;;
49366;SDS011;35245;52.026;8.540;2023-01-19T02:41:10;19.25;;;11.10;;
49366;SDS011;35245;52.026;8.540;2023-01-19T02:43:42;17.50;;;11.20;;
49366;SDS011;35245;52.026;8.540;2023-01-19T02:46:11;17.45;;;11.27;;
49366;SDS011;35245;52.026;8.540;2023-01-19T02:48:41;20.38;;;11.80;;
49366;SDS011;35245;52.026;8.540;2023-01-19T02:51:10;22.65;;;11.23;;
49366;SDS011;35245;52.026;8.540;2023-01-19T02:56:43;16.17;;;10.73;;
49366;SDS011;35245;52.026;8.540;2023-01-19T02:59:34;18.08;;;10.80;;
49366;SDS011;35245;52.026;8.540;2023-01-19T03:02:21;16.33;;;10.55;;
49366;SDS011;35245;52.026;8.540;2023-01-19T03:05:03;16.70;;;10.90;;
49366;SDS011;35245;52.026;8.540;2023-01-19T03:07:54;18.52;;;10.35;;
49366;SDS011;35245;52.026;8.540;2023-01-19T03:10:30;15.43;;;10.23;;
49366;SDS011;35245;52.026;8.540;2023-01-19T03:13:08;17.58;;;11.10;;
49366;SDS011;35245;52.026;8.540;2023-01-19T03:15:42;17.50;;;10.07;;
49366;SDS011;35245;52.026;8.540;2023-01-19T03:18:15;23.38;;;10.75;;
49366;SDS011;35245;52.026;8.540;2023-01-19T03:20:49;16.83;;;10.50;;
49366;SDS011;35245;52.026;8.540;2023-01-19T03:23:20;18.00;;;11.07;;
49366;SDS011;35245;52.026;8.540;2023-01-19T03:25:57;20.75;;;10.98;;
49366;SDS011;35245;52.026;8.540;2023-01-19T03:28:28;18.15;;;10.38;;
49366;SDS011;35245;52.026;8.540;2023-01-19T03:30:58;17.67;;;11.20;;
49366;SDS011;35245;52.026;8.540;2023-01-19T03:33:31;16.48;;;10.95;;
49366;SDS011;35245;52.026;8.540;2023-01-19T03:36:02;16.75;;;10.70;;
49366;SDS011;35245;52.026;8.540;2023-01-19T03:38:36;17.15;;;10.73;;
49366;SDS011;35245;52.026;8.540;2023-01-19T03:41:08;23.02;;;10.32;;
49366;SDS011;35245;52.026;8.540;2023-01-19T03:43:39;20.17;;;11.25;;
49366;SDS011;35245;52.026;8.540;2023-01-19T03:46:08;16.55;;;10.70;;
49366;SDS011;35245;52.026;8.540;2023-01-19T03:48:41;18.10;;;10.32;;
49366;SDS011;35245;52.026;8.540;2023-01-19T03:51:09;15.15;;;10.48;;
49366;SDS011;35245;52.026;8.540;2023-01-19T03:53:37;15.43;;;10.43;;
49366;SDS011;35245;52.026;8.540;2023-01-19T03:56:04;16.33;;;10.00;;
49366;SDS011;35245;52.026;8.540;2023-01-19T03:58:40;20.15;;;10.65;;
49366;SDS011;35245;52.026;8.540;2023-01-19T04:01:07;17.65;;;11.18;;
49366;SDS011;35245;52.026;8.540;2023-01-19T04:03:34;17.65;;;11.10;;
49366;SDS011;35245;52.026;8.540;2023-01-19T04:06:01;16.05;;;10.45;;
49366;SDS011;35245;52.026;8.540;2023-01-19T04:08:29;22.80;;;11.13;;
49366;SDS011;35245;52.026;8.540;2023-01-19T04:10:56;20.27;;;10.80;;
49366;SDS011;35245;52.026;8.540;2023-01-19T04:13:25;19.23;;;10.95;;
49366;SDS011;35245;52.026;8.540;2023-01-19T04:15:54;16.80;;;10.63;;
49366;SDS011;35245;52.026;8.540;2023-01-19T04:18:24;17.80;;;10.73;;
49366;SDS011;35245;52.026;8.540;2023-01-19T04:20:51;17.17;;;10.77;;
49366;SDS011;35245;52.026;8.540;2023-01-19T04:23:18;18.83;;;11.10;;
49366;SDS011;35245;52.026;8.540;2023-01-19T04:25:45;14.93;;;9.45;;
49366;SDS011;35245;52.026;8.540;2023-01-19T04:28:13;19.27;;;10.52;;
49366;SDS011;35245;52.026;8.540;2023-01-19T04:30:42;16.40;;;9.98;;
49366;SDS011;35245;52.026;8.540;2023-01-19T04:33:09;16.95;;;10.60;;
49366;SDS011;35245;52.026;8.540;2023-01-19T04:35:36;19.38;;;10.15;;
49366;SDS011;35245;52.026;8.540;2023-01-19T04:38:03;17.20;;;10.63;;
49366;SDS011;35245;52.026;8.540;2023-01-19T04:40:30;16.50;;;10.23;;
49366;SDS011;35245;52.026;8.540;2023-01-19T04:42:57;14.65;;;9.35;;
49366;SDS011;35245;52.026;8.540;2023-01-19T04:45:24;19.30;;;11.32;;
49366;SDS011;35245;52.026;8.540;2023-01-19T04:47:53;16.08;;;9.75;;
49366;SDS011;35245;52.026;8.540;2023-01-19T04:50:20;18.98;;;9.70;;
49366;SDS011;35245;52.026;8.540;2023-01-19T04:52:47;16.08;;;9.65;;
49366;SDS011;35245;52.026;8.540;2023-01-19T04:55:14;13.38;;;8.88;;
49366;SDS011;35245;52.026;8.540;2023-01-19T04:57:42;15.32;;;8.98;;
49366;SDS011;35245;52.026;8.540;2023-01-19T05:00:10;16.88;;;9.60;;
49366;SDS011;35245;52.026;8.540;2023-01-19T05:02:38;18.65;;;9.38;;
49366;SDS011;35245;52.026;8.540;2023-01-19T05:05:08;16.40;;;9.98;;
49366;SDS011;35245;52.026;8.540;2023-01-19T05:07:35;20.23;;;10.77;;
49366;SDS011;35245;52.026;8.540;2023-01-19T05:10:03;14.85;;;9.27;;
49366;SDS011;35245;52.026;8.540;2023-01-19T05:12:32;15.50;;;8.43;;
49366;SDS011;35245;52.026;8.540;2023-01-19T05:15:00;17.10;;;10.65;;
49366;SDS011;35245;52.026;8.540;2023-01-19T05:17:27;21.45;;;10.88;;
49366;SDS011;35245;52.026;8.540;2023-01-19T05:19:55;13.98;;;9.00;;
49366;SDS011;35245;52.026;8.540;2023-01-19T05:22:23;21.70;;;12.07;;
49366;SDS011;35245;52.026;8.540;2023-01-19T05:24:50;22.52;;;12.18;;
49366;SDS011;35245;52.026;8.540;2023-01-19T05:27:18;19.20;;;11.27;;
49366;SDS011;35245;52.026;8.540;2023-01-19T05:29:45;18.33;;;9.13;;
49366;SDS011;35245;52.026;8.540;2023-01-19T05:32:12;17.05;;;8.70;;
49366;SDS011;35245;52.026;8.540;2023-01-19T05:34:40;16.20;;;8.65;;
49366;SDS011;35245;52.026;8.540;2023-01-19T05:37:07;22.75;;;9.98;;
49366;SDS011;35245;52.026;8.540;2023-01-19T05:39:36;20.08;;;10.95;;
49366;SDS011;35245;52.026;8.540;2023-01-19T05:42:03;17.10;;;9.52;;
49366;SDS011;35245;52.026;8.540;2023-01-19T05:44:31;27.00;;;10.95;;
49366;SDS011;35245;52.026;8.540;2023-01-19T05:46:58;19.95;;;10.18;;
49366;SDS011;35245;52.026;8.540;2023-01-19T05:49:25;15.05;;;8.60;;
49366;SDS011;35245;52.026;8.540;2023-01-19T05:51:53;18.08;;;9.40;;
49366;SDS011;35245;52.026;8.540;2023-01-19T05:54:20;16.98;;;8.80;;
49366;SDS011;35245;52.026;8.540;2023-01-19T05:56:49;14.82;;;8.82;;
49366;SDS011;35245;52.026;8.540;2023-01-19T05:59:16;20.52;;;10.07;;
49366;SDS011;35245;52.026;8.540;2023-01-19T06:01:48;18.08;;;10.57;;
49366;SDS011;35245;52.026;8.540;2023-01-19T06:04:15;30.90;;;14.35;;
49366;SDS011;35245;52.026;8.540;2023-01-19T06:06:43;16.90;;;9.32;;
49366;SDS011;35245;52.026;8.540;2023-01-19T06:09:12;25.58;;;10.55;;
49366;SDS011;35245;52.026;8.540;2023-01-19T06:11:39;18.20;;;9.68;;
49366;SDS011;35245;52.026;8.540;2023-01-19T06:14:09;20.35;;;10.02;;
49366;SDS011;35245;52.026;8.540;2023-01-19T06:16:36;19.33;;;10.65;;
49366;SDS011;35245;52.026;8.540;2023-01-19T06:19:03;24.98;;;12.60;;
49366;SDS011;35245;52.026;8.540;2023-01-19T06:21:31;25.02;;;12.38;;
49366;SDS011;35245;52.026;8.540;2023-01-19T06:23:58;20.02;;;11.52;;
49366;SDS011;35245;52.026;8.540;2023-01-19T06:26:26;17.48;;;10.25;;
49366;SDS011;35245;52.026;8.540;2023-01-19T06:28:53;28.80;;;13.38;;
49366;SDS011;35245;52.026;8.540;2023-01-19T06:31:22;20.48;;;11.57;;
49366;SDS011;35245;52.026;8.540;2023-01-19T06:33:49;26.90;;;13.05;;
49366;SDS011;35245;52.026;8.540;2023-01-19T06:36:16;22.33;;;12.25;;
49366;SDS011;35245;52.026;8.540;2023-01-19T06:38:44;22.20;;;11.23;;
49366;SDS011;35245;52.026;8.540;2023-01-19T06:41:11;27.33;;;12.50;;
49366;SDS011;35245;52.026;8.540;2023-01-19T06:43:38;23.58;;;13.10;;
49366;SDS011;35245;52.026;8.540;2023-01-19T06:46:05;21.75;;;11.18;;
49366;SDS011;35245;52.026;8.540;2023-01-19T06:48:34;29.02;;;13.02;;
49366;SDS011;35245;52.026;8.540;2023-01-19T06:51:01;15.70;;;10.48;;
49366;SDS011;35245;52.026;8.540;2023-01-19T06:53:29;19.05;;;11.57;;
49366;SDS011;35245;52.026;8.540;2023-01-19T06:55:57;23.55;;;12.02;;
49366;SDS011;35245;52.026;8.540;2023-01-19T06:58:25;21.25;;;12.25;;
49366;SDS011;35245;52.026;8.540;2023-01-19T07:00:53;17.98;;;11.43;;
49366;SDS011;35245;52.026;8.540;2023-01-19T07:03:21;21.70;;;13.38;;
49366;SDS011;35245;52.026;8.540;2023-01-19T07:05:53;17.02;;;11.13;;
49366;SDS011;35245;52.026;8.540;2023-01-19T07:08:20;27.17;;;14.02;;
49366;SDS011;35245;52.026;8.540;2023-01-19T07:10:48;24.45;;;12.98;;
49366;SDS011;35245;52.026;8.540;2023-01-19T07:13:15;26.98;;;12.73;;
49366;SDS011;35245;52.026;8.540;2023-01-19T07:15:42;25.60;;;13.77;;
49366;SDS011;35245;52.026;8.540;2023-01-19T07:18:10;23.00;;;12.85;;
49366;SDS011;35245;52.026;8.540;2023-01-19T07:20:37;22.02;;;13.70;;
49366;SDS011;35245;52.026;8.540;2023-01-19T07:23:05;23.65;;;13.90;;
49366;SDS011;35245;52.026;8.540;2023-01-19T07:25:34;17.42;;;13.10;;
49366;SDS011;35245;52.026;8.540;2023-01-19T07:28:02;19.90;;;13.57;;
49366;SDS011;35245;52.026;8.540;2023-01-19T07:30:29;35.55;;;17.88;;
49366;SDS011;35245;52.026;8.540;2023-01-19T07:32:57;20.45;;;14.48;;
49366;SDS011;35245;52.026;8.540;2023-01-19T07:35:24;23.25;;;14.98;;
49366;SDS011;35245;52.026;8.540;2023-01-19T07:37:53;23.20;;;14.63;;
49366;SDS011;35245;52.026;8.540;2023-01-19T07:40:22;20.02;;;14.27;;
49366;SDS011;35245;52.026;8.540;2023-01-19T07:42:49;21.73;;;15.50;;
49366;SDS011;35245;52.026;8.540;2023-01-19T07:45:17;20.40;;;14.77;;
49366;SDS011;35245;52.026;8.540;2023-01-19T07:47:46;25.20;;;16.27;;
49366;SDS011;35245;52.026;8.540;2023-01-19T07:50:14;19.23;;;13.52;;
49366;SDS011;35245;52.026;8.540;2023-01-19T07:52:45;23.30;;;16.88;;
49366;SDS011;35245;52.026;8.540;2023-01-19T07:55:14;25.77;;;16.13;;
49366;SDS011;35245;52.026;8.540;2023-01-19T07:57:43;20.52;;;14.35;;
49366;SDS011;35245;52.026;8.540;2023-01-19T08:00:11;22.42;;;14.38;;
49366;SDS011;35245;52.026;8.540;2023-01-19T08:02:39;25.13;;;16.15;;
49366;SDS011;35245;52.026;8.540;2023-01-19T08:05:06;20.55;;;14.63;;
49366;SDS011;35245;52.026;8.540;2023-01-19T08:07:34;22.02;;;14.98;;
49366;SDS011;35245;52.026;8.540;2023-01-19T08:10:02;23.48;;;15.35;;
49366;SDS011;35245;52.026;8.540;2023-01-19T08:12:29;20.15;;;14.98;;
49366;SDS011;35245;52.026;8.540;2023-01-19T08:14:58;23.02;;;16.75;;
49366;SDS011;35245;52.026;8.540;2023-01-19T08:17:25;26.40;;;17.52;;
49366;SDS011;35245;52.026;8.540;2023-01-19T08:19:52;25.88;;;16.83;;
49366;SDS011;35245;52.026;8.540;2023-01-19T08:22:19;26.88;;;18.33;;
49366;SDS011;35245;52.026;8.540;2023-01-19T08:24:46;23.85;;;16.98;;
49366;SDS011;35245;52.026;8.540;2023-01-19T08:27:14;26.05;;;17.20;;
49366;SDS011;35245;52.026;8.540;2023-01-19T08:29:41;22.50;;;16.08;;
49366;SDS011;35245;52.026;8.540;2023-01-19T08:32:09;21.63;;;15.63;;
49366;SDS011;35245;52.026;8.540;2023-01-19T08:34:36;25.65;;;16.88;;
49366;SDS011;35245;52.026;8.540;2023-01-19T08:37:04;24.98;;;16.77;;
49366;SDS011;35245;52.026;8.540;2023-01-19T08:39:31;25.23;;;16.88;;
49366;SDS011;35245;52.026;8.540;2023-01-19T08:41:58;26.58;;;16.35;;
49366;SDS011;35245;52.026;8.540;2023-01-19T08:44:25;25.83;;;16.63;;
49366;SDS011;35245;52.026;8.540;2023-01-19T08:46:52;24.67;;;17.27;;
49366;SDS011;35245;52.026;8.540;2023-01-19T08:49:21;20.25;;;14.20;;
49366;SDS011;35245;52.026;8.540;2023-01-19T08:51:48;26.45;;;16.92;;
49366;SDS011;35245;52.026;8.540;2023-01-19T08:54:15;25.83;;;17.20;;
49366;SDS011;35245;52.026;8.540;2023-01-19T08:56:44;24.67;;;16.98;;
49366;SDS011;35245;52.026;8.540;2023-01-19T08:59:11;21.35;;;14.90;;
49366;SDS011;35245;52.026;8.540;2023-01-19T09:01:38;24.35;;;16.70;;
49366;SDS011;35245;52.026;8.540;2023-01-19T09:04:06;19.48;;;13.93;;
49366;SDS011;35245;52.026;8.540;2023-01-19T09:06:34;23.17;;;15.75;;
49366;SDS011;35245;52.026;8.540;2023-01-19T09:09:02;25.73;;;16.80;;
49366;SDS011;35245;52.026;8.540;2023-01-19T09:11:29;23.08;;;15.85;;
49366;SDS011;35245;52.026;8.540;2023-01-19T09:13:57;22.75;;;15.73;;
49366;SDS011;35245;52.026;8.540;2023-01-19T09:16:24;20.98;;;15.32;;
49366;SDS011;35245;52.026;8.540;2023-01-19T09:18:53;24.63;;;15.35;;
49366;SDS011;35245;52.026;8.540;2023-01-19T09:21:20;24.73;;;15.98;;
49366;SDS011;35245;52.026;8.540;2023-01-19T09:23:49;22.30;;;15.00;;
49366;SDS011;35245;52.026;8.540;2023-01-19T09:26:18;25.38;;;16.75;;
49366;SDS011;35245;52.026;8.540;2023-01-19T09:28:47;19.33;;;13.88;;
49366;SDS011;35245;52.026;8.540;2023-01-19T09:31:14;20.70;;;14.50;;
49366;SDS011;35245;52.026;8.540;2023-01-19T09:33:42;18.00;;;13.30;;
49366;SDS011;35245;52.026;8.540;2023-01-19T09:36:10;19.63;;;13.38;;
49366;SDS011;35245;52.026;8.540;2023-01-19T09:38:38;25.60;;;14.13;;
49366;SDS011;35245;52.026;8.540;2023-01-19T09:41:11;25.08;;;13.63;;
49366;SDS011;35245;52.026;8.540;2023-01-19T09:43:46;29.42;;;13.43;;
49366;SDS011;35245;52.026;8.540;2023-01-19T09:46:18;22.83;;;13.20;;
49366;SDS011;35245;52.026;8.540;2023-01-19T09:48:50;23.77;;;13.30;;
49366;SDS011;35245;52.026;8.540;2023-01-19T09:51:21;20.60;;;14.15;;
49366;SDS011;35245;52.026;8.540;2023-01-19T09:53:52;32.05;;;15.32;;
49366;SDS011;35245;52.026;8.540;2023-01-19T09:56:29;33.95;;;17.77;;
49366;SDS011;35245;52.026;8.540;2023-01-19T09:58:57;25.48;;;13.73;;
49366;SDS011;35245;52.026;8.540;2023-01-19T10:01:31;21.90;;;13.48;;
49366;SDS011;35245;52.026;8.540;2023-01-19T10:04:26;27.70;;;14.93;;
49366;SDS011;35245;52.026;8.540;2023-01-19T10:06:58;26.92;;;15.68;;
49366;SDS011;35245;52.026;8.540;2023-01-19T10:09:35;29.30;;;16.65;;
49366;SDS011;35245;52.026;8.540;2023-01-19T10:12:34;32.42;;;16.90;;
49366;SDS011;35245;52.026;8.540;2023-01-19T10:15:18;18.88;;;12.02;;
49366;SDS011;35245;52.026;8.540;2023-01-19T10:18:00;23.33;;;13.63;;
49366;SDS011;35245;52.026;8.540;2023-01-19T10:20:39;38.97;;;17.35;;
49366;SDS011;35245;52.026;8.540;2023-01-19T10:26:09;24.23;;;13.27;;
49366;SDS011;35245;52.026;8.540;2023-01-19T10:28:43;39.15;;;14.32;;
49366;SDS011;35245;52.026;8.540;2023-01-19T10:31:14;26.60;;;12.82;;
49366;SDS011;35245;52.026;8.540;2023-01-19T10:33:46;31.33;;;15.93;;
49366;SDS011;35245;52.026;8.540;2023-01-19T10:36:16;28.33;;;15.27;;
49366;SDS011;35245;52.026;8.540;2023-01-19T10:38:46;35.73;;;15.83;;
49366;SDS011;35245;52.026;8.540;2023-01-19T10:41:17;31.35;;;13.57;;
49366;SDS011;35245;52.026;8.540;2023-01-19T10:43:57;18.45;;;11.10;;
49366;SDS011;35245;52.026;8.540;2023-01-19T10:46:28;17.02;;;11.70;;
49366;SDS011;35245;52.026;8.540;2023-01-19T10:49:02;26.77;;;14.30;;
49366;SDS011;35245;52.026;8.540;2023-01-19T10:51:30;27.10;;;14.35;;
49366;SDS011;35245;52.026;8.540;2023-01-19T10:53:58;32.33;;;16.30;;
49366;SDS011;35245;52.026;8.540;2023-01-19T10:56:31;35.25;;;17.67;;
49366;SDS011;35245;52.026;8.540;2023-01-19T10:59:03;20.73;;;11.80;;
49366;SDS011;35245;52.026;8.540;2023-01-19T11:01:32;33.05;;;14.18;;
49366;SDS011;35245;52.026;8.540;2023-01-19T11:04:18;27.73;;;12.40;;
49366;SDS011;35245;52.026;8.540;2023-01-19T11:06:51;28.08;;;11.50;;
49366;SDS011;35245;52.026;8.540;2023-01-19T11:09:38;27.33;;;14.65;;
49366;SDS011;35245;52.026;8.540;2023-01-19T11:12:07;31.05;;;16.05;;
49366;SDS011;35245;52.026;8.540;2023-01-19T11:14:48;22.08;;;10.93;;
49366;SDS011;35245;52.026;8.540;2023-01-19T11:17:18;33.08;;;12.57;;
49366;SDS011;35245;52.026;8.540;2023-01-19T11:19:52;29.67;;;12.55;;
49366;SDS011;35245;52.026;8.540;2023-01-19T11:22:24;26.85;;;12.18;;
49366;SDS011;35245;52.026;8.540;2023-01-19T11:24:58;26.35;;;12.27;;
49366;SDS011;35245;52.026;8.540;2023-01-19T11:27:28;26.17;;;13.32;;
49366;SDS011;35245;52.026;8.540;2023-01-19T11:30:02;33.50;;;14.88;;
49366;SDS011;35245;52.026;8.540;2023-01-19T11:32:42;24.45;;;12.52;;
49366;SDS011;35245;52.026;8.540;2023-01-19T11:35:31;26.10;;;14.25;;
49366;SDS011;35245;52.026;8.540;2023-01-19T11:38:04;20.15;;;12.18;;
49366;SDS011;35245;52.026;8.540;2023-01-19T11:40:45;28.17;;;14.57;;
49366;SDS011;35245;52.026;8.540;2023-01-19T11:43:20;23.52;;;14.85;;
49366;SDS011;35245;52.026;8.540;2023-01-19T11:45:50;25.98;;;14.75;;
49366;SDS011;35245;52.026;8.540;2023-01-19T11:48:22;25.48;;;14.35;;
49366;SDS011;35245;52.026;8.540;2023-01-19T11:50:56;24.73;;;13.30;;
49366;SDS011;35245;52.026;8.540;2023-01-19T11:53:29;27.52;;;13.05;;
49366;SDS011;35245;52.026;8.540;2023-01-19T11:56:00;27.85;;;12.40;;
49366;SDS011;35245;52.026;8.540;2023-01-19T11:58:32;31.65;;;12.75;;
49366;SDS011;35245;52.026;8.540;2023-01-19T12:01:06;29.33;;;14.05;;
49366;SDS011;35245;52.026;8.540;2023-01-19T12:03:45;26.17;;;13.80;;
49366;SDS011;35245;52.026;8.540;2023-01-19T12:06:21;25.13;;;12.93;;
49366;SDS011;35245;52.026;8.540;2023-01-19T12:08:55;22.55;;;13.25;;
49366;SDS011;35245;52.026;8.540;2023-01-19T12:11:30;28.33;;;12.35;;
49366;SDS011;35245;52.026;8.540;2023-01-19T12:14:02;29.50;;;14.38;;
49366;SDS011;35245;52.026;8.540;2023-01-19T12:16:38;41.70;;;17.35;;
49366;SDS011;35245;52.026;8.540;2023-01-19T12:19:09;41.28;;;18.65;;
49366;SDS011;35245;52.026;8.540;2023-01-19T12:21:42;24.88;;;12.15;;
49366;SDS011;35245;52.026;8.540;2023-01-19T12:24:13;27.90;;;14.38;;
49366;SDS011;35245;52.026;8.540;2023-01-19T12:26:44;29.92;;;11.38;;
49366;SDS011;35245;52.026;8.540;2023-01-19T12:29:18;31.15;;;15.50;;
49366;SDS011;35245;52.026;8.540;2023-01-19T12:34:59;32.03;;;12.45;;
49366;SDS011;35245;52.026;8.540;2023-01-19T12:37:37;28.27;;;12.70;;
49366;SDS011;35245;52.026;8.540;2023-01-19T12:40:17;30.88;;;13.27;;
49366;SDS011;35245;52.026;8.540;2023-01-19T12:42:54;36.15;;;11.73;;
49366;SDS011;35245;52.026;8.540;2023-01-19T12:45:28;47.67;;;17.17;;
49366;SDS011;35245;52.026;8.540;2023-01-19T12:47:58;27.33;;;12.48;;
49366;SDS011;35245;52.026;8.540;2023-01-19T12:50:27;36.90;;;13.63;;
49366;SDS011;35245;52.026;8.540;2023-01-19T12:53:00;31.13;;;12.68;;
49366;SDS011;35245;52.026;8.540;2023-01-19T12:55:32;27.23;;;11.13;;
49366;SDS011;35245;52.026;8.540;2023-01-19T12:58:03;29.00;;;13.27;;
49366;SDS011;35245;52.026;8.540;2023-01-19T13:00:39;30.67;;;13.50;;
49366;SDS011;35245;52.026;8.540;2023-01-19T13:09:35;32.45;;;13.38;;
49366;SDS011;35245;52.026;8.540;2023-01-19T13:17:59;32.17;;;14.38;;
49366;SDS011;35245;52.026;8.540;2023-01-19T13:20:29;37.78;;;17.23;;
49366;SDS011;35245;52.026;8.540;2023-01-19T13:23:22;30.98;;;14.88;;
49366;SDS011;35245;52.026;8.540;2023-01-19T13:25:52;45.85;;;18.75;;
49366;SDS011;35245;52.026;8.540;2023-01-19T13:28:30;32.80;;;17.05;;
49366;SDS011;35245;52.026;8.540;2023-01-19T13:31:05;34.45;;;15.68;;
49366;SDS011;35245;52.026;8.540;2023-01-19T13:33:38;34.03;;;17.42;;
49366;SDS011;35245;52.026;8.540;2023-01-19T13:36:22;36.55;;;17.00;;
49366;SDS011;35245;52.026;8.540;2023-01-19T13:38:54;45.63;;;20.00;;
49366;SDS011;35245;52.026;8.540;2023-01-19T13:41:24;30.60;;;16.58;;
49366;SDS011;35245;52.026;8.540;2023-01-19T13:43:57;36.17;;;16.98;;
49366;SDS011;35245;52.026;8.540;2023-01-19T13:46:28;33.83;;;17.25;;
49366;SDS011;35245;52.026;8.540;2023-01-19T13:48:58;38.17;;;19.20;;
49366;SDS011;35245;52.026;8.540;2023-01-19T13:51:31;31.50;;;17.42;;
49366;SDS011;35245;52.026;8.540;2023-01-19T13:53:58;38.65;;;19.23;;
49366;SDS011;35245;52.026;8.540;2023-01-19T13:56:26;42.17;;;20.13;;
49366;SDS011;35245;52.026;8.540;2023-01-19T13:59:05;37.80;;;19.48;;
49366;SDS011;35245;52.026;8.540;2023-01-19T14:01:37;40.28;;;18.95;;
49366;SDS011;35245;52.026;8.540;2023-01-19T14:06:56;37.00;;;19.45;;
49366;SDS011;35245;52.026;8.540;2023-01-19T14:09:27;34.88;;;17.77;;
49366;SDS011;35245;52.026;8.540;2023-01-19T14:12:09;37.83;;;19.83;;
49366;SDS011;35245;52.026;8.540;2023-01-19T14:14:39;50.13;;;19.25;;
49366;SDS011;35245;52.026;8.540;2023-01-19T14:17:18;35.90;;;20.42;;
49366;SDS011;35245;52.026;8.540;2023-01-19T14:19:52;43.70;;;20.85;;
49366;SDS011;35245;52.026;8.540;2023-01-19T14:22:23;41.70;;;19.45;;
49366;SDS011;35245;52.026;8.540;2023-01-19T14:31:16;48.47;;;21.02;;
49366;SDS011;35245;52.026;8.540;2023-01-19T14:33:46;35.05;;;18.95;;
49366;SDS011;35245;52.026;8.540;2023-01-19T14:36:20;46.30;;;19.20;;
49366;SDS011;35245;52.026;8.540;2023-01-19T14:38:56;39.20;;;20.25;;
49366;SDS011;35245;52.026;8.540;2023-01-19T14:41:25;47.90;;;19.92;;
49366;SDS011;35245;52.026;8.540;2023-01-19T14:43:58;38.13;;;20.98;;
49366;SDS011;35245;52.026;8.540;2023-01-19T14:46:27;38.65;;;18.55;;
49366;SDS011;35245;52.026;8.540;2023-01-19T14:48:56;38.15;;;19.33;;
49366;SDS011;35245;52.026;8.540;2023-01-19T14:51:28;37.40;;;17.80;;
49366;SDS011;35245;52.026;8.540;2023-01-19T14:53:58;41.50;;;18.10;;
49366;SDS011;35245;52.026;8.540;2023-01-19T14:56:28;34.65;;;17.90;;
49366;SDS011;35245;52.026;8.540;2023-01-19T14:58:58;49.08;;;18.35;;
49366;SDS011;35245;52.026;8.540;2023-01-19T15:01:27;28.13;;;17.30;;
49366;SDS011;35245;52.026;8.540;2023-01-19T15:03:55;41.03;;;17.63;;
49366;SDS011;35245;52.026;8.540;2023-01-19T15:06:23;42.60;;;19.00;;
49366;SDS011;35245;52.026;8.540;2023-01-19T15:08:51;35.20;;;18.35;;
49366;SDS011;35245;52.026;8.540;2023-01-19T15:11:22;40.05;;;20.83;;
49366;SDS011;35245;52.026;8.540;2023-01-19T15:13:52;41.45;;;20.60;;